Beverly Hills, CA

7:14 PM PDT on September 15, 2014 (GMT -0700)
Encino Hills | Change Station
CLOSE
Current Station
Personal Weather Station
Location: Encino, CA
Elevation: 981 ft
Nearby Weather Stations

Elev 981 ft 34.14 °N, 118.49 °W | Updated 1 hour ago

Clear
Clear
96.5 °F
Feels Like 95 °F
N
14.0
Wind Variable Wind from NNW
Gusts 14.0 mph

Today
High -- | Low -- °F
--% Chance of Precip.
Yesterday
High -- | Low -- °F
Precip. -- in
6:36 AM 7:00 PM
Waning Gibbous, 50% visible
Pressure 29.71 in
Visibility 10.0 miles
Clouds Clear
Heat Index 95 °F
Dew Point 56 °F
Humidity 26%
Rainfall 0.00 in
Snow Depth 0 in , 0 in , 1 in
UV 0 out of 12
Pollen 7.00 out of 12
Ozone Good
Flu Activity Not available.
METAR KSMO 160151Z 18003KT 10SM CLR 32/16 A2971 RMK AO2 SLP059 T03170156

More Conditions Fewer Conditions

Pressure 29.71 in
Visibility 10.0 miles
Clouds Clear
Heat Index 95 °F
Dew Point 56 °F
Humidity 26%
Rainfall 0.00 in
Snow Depth 0 in , 0 in , 1 in
UV 0 out of 12
Pollen 7.00 out of 12
Ozone Good
Flu Activity Not available.
METAR KSMO 160151Z 18003KT 10SM CLR 32/16 A2971 RMK AO2 SLP059 T03170156

More Conditions Fewer Conditions

10-Day Weather Forecast

Almanac

Astronomy

Sep. 15, 2014 Rise Set
Actual Time 6:36 AM PDT 7:00 PM PDT
Civil Twilight 6:11 AM PDT 7:25 PM PDT
Nautical Twilight 5:42 AM PDT 7:54 PM PDT
Astronomical Twilight 5:12 AM PDT 8:24 PM PDT
Moon No Moon Rise 1:25 PM PDT (9/15)
Length of Visible Light 13h 13m
Length of Day
12h 23m
Tomorrow will be 2m 7s shorter.
Waning Gibbous, 50% of the Moon is Illuminated
Today
Waning Gibbous
Sep 24
New
Oct 1
First Quarter
Oct 8
Full
Oct 15
Last Quarter

Today's Extremes

State Highs State Lows

Community

WunderPhotos

Upload Photos

1,753,664 photos uploaded!

WunderBlogs® & News

Nearby

Air Quality

  Air Quality AQ Index Pollutant
Yesterday Good
OZONE
Current Good
OZONE
Tuesday Good
PM10
Tuesday Good
OZONE
Tuesday Good
CO
Tuesday Good
NO2

Snow Depth

Station Depth Elevation
Summit Meadow 0 in 9122 ft
Spratt Creek 0 in 6200 ft
CSS Lab 1 in 6900 ft
Adin Mountain 0 in 6200 ft

Earthquake Activity

City Distance Mag. Time & Date
Inyokern, California 129 miles 3.2 5:56 PM PDT
2014-09-14
San Jacinto, California 84 miles 3.0 3:16 PM PDT
2014-09-14
Minimum magnitude displayed is 2.5.

Coastal Water Temperatures

Place Temperature
Santa Monica Pier 66.9 °F
Los Angeles, CA 69.1 °F
La Jolla, CA 68.0 °F

Nearby Weather Stations